Cezanne — H3NH — position and weather

sailwx.info

Track history (hours):
 
Tides and Currents Weather Stations Pressure Air Temp Water Temp Dewpoint Dewpoint Depression Visibility Wind Speed Wind Dir Waves Ship Positions

Cezanne

Last reported at 2017-Nov-19 22:27 UTC. Time now 2017-Nov-24 05:46 UTC.
Position N 35°49' E 014°33'.

Length 300 m; draft 14.1 m.

Type: Cargo ship. MMSI: 353300000.

Date/timePositionNaut miles runAvg speedWind from/ knotsBaromVisibWave heightAir tempDewpointWater temp
2017-Nov-19 22:27N 35°49' E 014°33'0 0.1
2017-Nov-19 22:00N 35°49' E 014°33'1 2.3
2017-Nov-19 21:30N 35°49' E 014°34'2 3.9
2017-Nov-19 21:00N 35°47' E 014°35'4 8.5
2017-Nov-19 20:30N 35°44' E 014°31'511.2
2017-Nov-19 20:00N 35°44' E 014°24'714.3
2017-Nov-19 19:30N 35°48' E 014°17'816.7
2017-Nov-19 19:00N 35°52' E 014°08'917.2
2017-Nov-19 18:30N 35°56' E 013°59'817.2
2017-Nov-19 18:00N 36°01' E 013°50'917.3
2017-Nov-19 17:30N 36°05' E 013°40'817.3
2017-Nov-19 17:00N 36°10' E 013°32'63818.0
2017-Nov-18 05:31N 36°39' E 000°19'26918.8
2017-Nov-17 15:11N 36°01' W 005°12'318.4
2017-Nov-17 15:00N 36°01' W 005°16'816.5
2017-Nov-17 14:30N 36°06' W 005°24'3 1.6
2017-Nov-17 12:22N 36°09' W 005°26'0 0.0
2017-Nov-17 11:55N 36°09' W 005°26'0 0.0
2017-Nov-17 11:28N 36°09' W 005°26'0 0.0
2017-Nov-17 10:37N 36°09' W 005°26'0 0.1
2017-Nov-17 10:19N 36°09' W 005°26'0 0.0
2017-Nov-17 09:52N 36°09' W 005°26'0 0.0
2017-Nov-17 09:28N 36°09' W 005°26'0 0.0
2017-Nov-17 08:55N 36°09' W 005°26'0 0.0
2017-Nov-17 08:28N 36°09' W 005°26'0 0.0
2017-Nov-17 07:52N 36°09' W 005°26'0 0.0
2017-Nov-17 07:19N 36°09' W 005°26'0 0.0
2017-Nov-17 06:55N 36°09' W 005°26'0 0.0
2017-Nov-17 06:16N 36°09' W 005°26'0 0.0
2017-Nov-17 05:58N 36°09' W 005°26'0 0.0
2017-Nov-17 05:28N 36°09' W 005°26'0 0.1
2017-Nov-17 04:58N 36°09' W 005°26'0 0.1
2017-Nov-17 04:28N 36°09' W 005°26'0 0.0
2017-Nov-17 03:55N 36°09' W 005°26'0 0.0
2017-Nov-17 03:28N 36°09' W 005°26'0 0.0
2017-Nov-17 02:58N 36°09' W 005°26'0 0.0
2017-Nov-17 02:28N 36°09' W 005°26'0 0.0
2017-Nov-17 01:58N 36°09' W 005°26'0 0.0
2017-Nov-17 01:28N 36°09' W 005°26'0 0.0
2017-Nov-17 00:58N 36°09' W 005°26'0 0.0
2017-Nov-17 00:28N 36°09' W 005°26'0 0.0
2017-Nov-16 23:58N 36°09' W 005°26'0 0.0
2017-Nov-16 23:28N 36°09' W 005°26'0 0.0
2017-Nov-16 22:58N 36°09' W 005°26'0 0.0
2017-Nov-16 22:28N 36°09' W 005°26'0 0.0
2017-Nov-16 21:58N 36°09' W 005°26'0 0.0
2017-Nov-16 21:28N 36°09' W 005°26'0 0.0
2017-Nov-16 20:58N 36°09' W 005°26'0 0.0
2017-Nov-16 20:28N 36°09' W 005°26'0 0.0
2017-Nov-16 19:58N 36°09' W 005°26'0 0.0
2017-Nov-16 19:28N 36°09' W 005°26'0 0.0
2017-Nov-16 18:58N 36°09' W 005°26'0 0.0
2017-Nov-16 17:34N 36°09' W 005°26'0 0.0
2017-Nov-16 17:19N 36°09' W 005°26'0 0.0
2017-Nov-16 16:55N 36°09' W 005°26'0 0.0
2017-Nov-16 14:01N 36°09' W 005°26'0 0.0
2017-Nov-16 13:49N 36°09' W 005°26'0 0.0
2017-Nov-16 13:28N 36°09' W 005°26'0 0.0
2017-Nov-16 12:37N 36°09' W 005°26'0 0.1
2017-Nov-16 12:19N 36°09' W 005°26'0 0.0
2017-Nov-16 11:58N 36°09' W 005°26'0 0.0
2017-Nov-16 11:28N 36°09' W 005°26'0 0.8
2017-Nov-16 10:51N 36°09' W 005°26'2 5.2
2017-Nov-16 10:25N 36°08' W 005°24'4 9.1
2017-Nov-16 10:00N 36°04' W 005°22'2 4.3
2017-Nov-16 09:31N 36°03' W 005°21'3 5.4
2017-Nov-16 09:00N 36°03' W 005°17'0 0.3
2017-Nov-16 08:31N 36°03' W 005°17'0 0.5
2017-Nov-16 08:00N 36°03' W 005°18'0 0.6
2017-Nov-16 07:30N 36°03' W 005°18'1 2.3
2017-Nov-16 07:00N 36°03' W 005°16'4 7.2
2017-Nov-16 06:31N 36°03' W 005°12'4 7.2
2017-Nov-16 06:00N 36°06' W 005°08'0 0.8
2017-Nov-16 05:30N 36°06' W 005°08'0 0.6
2017-Nov-16 05:01N 36°06' W 005°07'2 0.8
2017-Nov-16 02:10N 36°07' W 005°05'0 2.0
2017-Nov-16 01:56N 36°07' W 005°06'2 4.9
2017-Nov-16 01:30N 36°06' W 005°08'815.4
2017-Nov-16 01:01N 36°01' W 005°15'714.1
2017-Nov-16 00:30N 35°58' W 005°23'22115.0
2017-Nov-15 09:46N 37°11' W 009°43'1119.4
2017-Nov-15 09:10N 37°22' W 009°46'319.7
2017-Nov-15 09:00N 37°26' W 009°46'1020.1
2017-Nov-15 08:30N 37°35' W 009°49'1020.6
2017-Nov-15 08:00N 37°46' W 009°52'1020.4
2017-Nov-15 07:30N 37°56' W 009°54'1020.3
2017-Nov-15 07:00N 38°05' W 009°57'1020.3
2017-Nov-15 06:30N 38°15' W 009°59'1020.3
2017-Nov-15 06:00N 38°25' W 010°02'1019.8
2017-Nov-15 05:30N 38°35' W 010°05'1019.8
2017-Nov-15 05:00N 38°45' W 010°08'1020.0
2017-Nov-15 04:30N 38°55' W 010°07'1020.3
2017-Nov-15 04:01N 39°05' W 010°08'1020.4
2017-Nov-15 03:30N 39°15' W 010°09'1020.0
2017-Nov-15 03:00N 39°25' W 010°09'1019.8
2017-Nov-15 02:30N 39°35' W 010°10'50019.6
2017-Nov-14 01:01N 47°33' W 006°46'024.5
2017-Nov-14 01:00N 47°33' W 006°46'1219.6
2017-Nov-14 00:23N 47°44' W 006°38'719.6
2017-Nov-14 00:00N 47°50' W 006°33'2419.1
2017-Nov-13 22:45N 48°12' W 006°16'719.0
2017-Nov-13 22:23N 48°18' W 006°11'819.2
2017-Nov-13 21:58N 48°25' W 006°06'41319.4
2017-Nov-13 00:39N 52°03' E 003°04'415.6
2017-Nov-13 00:23N 52°03' E 003°10'715.5
2017-Nov-12 23:56N 52°03' E 003°22'715.3
2017-Nov-12 23:30N 52°04' E 003°33'815.2
2017-Nov-12 23:00N 52°04' E 003°45'510.2
2017-Nov-12 22:30N 52°04' E 003°53'1 2.3
2017-Nov-12 22:00N 52°03' E 003°54'1 2.2
2017-Nov-12 21:30N 52°02' E 003°55'1 2.8
2017-Nov-12 21:00N 52°01' E 003°57'3 6.9
2017-Nov-12 20:30N 51°60' E 004°02'3 5.2
2017-Nov-12 20:00N 51°58' E 004°05'1 2.2
2017-Nov-12 19:29N 51°57' E 004°03'0 0.0
2017-Nov-12 18:59N 51°57' E 004°03'0 0.0
2017-Nov-12 18:29N 51°57' E 004°03'0 0.0
2017-Nov-12 17:59N 51°57' E 004°03'0 0.0
2017-Nov-12 17:29N 51°57' E 004°03'0 0.0
2017-Nov-12 16:59N 51°57' E 004°03'0 0.0
2017-Nov-12 16:29N 51°57' E 004°03'0 0.0
2017-Nov-12 15:59N 51°57' E 004°03'0 0.0
2017-Nov-12 15:29N 51°57' E 004°03'0 0.0
2017-Nov-12 14:59N 51°57' E 004°03'0 0.0
2017-Nov-12 14:26N 51°57' E 004°03'0 0.0
2017-Nov-12 13:59N 51°58' E 004°03'0 0.0
2017-Nov-12 13:29N 51°57' E 004°03'0 0.0
2017-Nov-12 12:59N 51°57' E 004°03'0 0.0
2017-Nov-12 12:29N 51°57' E 004°03'0 0.0
2017-Nov-12 11:59N 51°57' E 004°03'0 0.0
2017-Nov-12 11:29N 51°57' E 004°03'0 0.0
2017-Nov-12 10:59N 51°57' E 004°03'0 0.0
2017-Nov-12 10:29N 51°57' E 004°03'0 0.0
2017-Nov-12 09:59N 51°57' E 004°03'0 0.0
2017-Nov-12 09:29N 51°57' E 004°03'0 0.0
2017-Nov-12 08:59N 51°57' E 004°03'0 0.0
2017-Nov-12 08:29N 51°57' E 004°03'0 0.0
2017-Nov-12 07:59N 51°57' E 004°03'0 0.0
2017-Nov-12 07:26N 51°57' E 004°03'0 0.0
2017-Nov-12 06:59N 51°57' E 004°03'0 0.0
2017-Nov-12 06:29N 51°57' E 004°03'0 0.0
2017-Nov-12 05:59N 51°57' E 004°03'0 0.0
2017-Nov-12 05:29N 51°57' E 004°03'0 0.0
2017-Nov-12 04:59N 51°57' E 004°03'0 0.0
2017-Nov-12 04:29N 51°58' E 004°03'0 0.0
2017-Nov-12 03:59N 51°57' E 004°03'0 0.0
2017-Nov-12 03:29N 51°57' E 004°03'0 0.0
2017-Nov-12 02:59N 51°57' E 004°03'0 0.0
2017-Nov-12 02:29N 51°57' E 004°03'0 0.0
2017-Nov-12 01:59N 51°57' E 004°03'0 0.0
2017-Nov-12 01:29N 51°58' E 004°03'0 0.0
2017-Nov-12 00:59N 51°57' E 004°03'0 0.0
2017-Nov-12 00:29N 51°57' E 004°03'0 0.0
2017-Nov-11 23:59N 51°57' E 004°03'0 0.0
2017-Nov-11 23:29N 51°57' E 004°03'0 0.0
2017-Nov-11 22:59N 51°57' E 004°03'0 0.0
2017-Nov-11 22:29N 51°57' E 004°03'0 0.0
2017-Nov-11 21:59N 51°57' E 004°03'0 0.0
2017-Nov-11 21:29N 51°57' E 004°03'0 0.0
2017-Nov-11 20:59N 51°57' E 004°03'0 0.0
2017-Nov-11 20:29N 51°58' E 004°03'0 0.0
2017-Nov-11 19:59N 51°57' E 004°03'0 0.0
2017-Nov-11 19:29N 51°57' E 004°03'0 0.0
2017-Nov-11 18:59N 51°57' E 004°03'0 0.0
2017-Nov-11 18:26N 51°57' E 004°03'0 0.0
2017-Nov-11 17:59N 51°57' E 004°03'0 0.0
2017-Nov-11 17:29N 51°57' E 004°03'0 0.0
2017-Nov-11 16:59N 51°57' E 004°03'0 0.0
2017-Nov-11 16:29N 51°57' E 004°03'0 0.0
2017-Nov-11 15:59N 51°57' E 004°03'0 0.0
2017-Nov-11 15:29N 51°57' E 004°03'0 0.0
2017-Nov-11 14:59N 51°57' E 004°03'0 0.0
2017-Nov-11 14:29N 51°57' E 004°03'0 0.0
2017-Nov-11 13:59N 51°57' E 004°03'0 0.0
2017-Nov-11 13:29N 51°57' E 004°03'0 0.0
2017-Nov-11 12:59N 51°57' E 004°03'0 0.0
2017-Nov-11 12:29N 51°57' E 004°03'0 0.0
2017-Nov-11 11:59N 51°57' E 004°03'0 0.0
2017-Nov-11 11:29N 51°57' E 004°03'0 0.0
2017-Nov-11 10:59N 51°57' E 004°03'0 0.0
2017-Nov-11 10:29N 51°57' E 004°03'0 0.0
2017-Nov-11 09:59N 51°57' E 004°03'0 0.0
2017-Nov-11 09:29N 51°57' E 004°03'0 0.0
2017-Nov-11 08:59N 51°57' E 004°03'0 0.0
2017-Nov-11 08:29N 51°57' E 004°03'0 0.0
2017-Nov-11 07:59N 51°57' E 004°03'0 0.0
2017-Nov-11 07:29N 51°57' E 004°03'0 0.0
2017-Nov-11 06:59N 51°57' E 004°03'0 0.0
2017-Nov-11 06:30N 51°57' E 004°03'0 0.0
2017-Nov-11 06:00N 51°58' E 004°03'1 1.8
2017-Nov-11 05:30N 51°58' E 004°04'2 3.6
2017-Nov-11 05:00N 51°59' E 004°03'612.5
2017-Nov-11 04:30N 52°01' E 003°53'3 6.3
2017-Nov-11 04:00N 51°60' E 003°49'816.1
2017-Nov-11 03:30N 51°57' E 003°37'712.8
2017-Nov-11 03:00N 51°54' E 003°27'0 0.7
2017-Nov-11 02:29N 51°54' E 003°27'0 0.2
2017-Nov-11 02:00N 51°54' E 003°27'0 0.0
2017-Nov-11 01:30N 51°54' E 003°27'0 0.0
2017-Nov-11 00:57N 51°54' E 003°27'0 0.0
2017-Nov-11 00:30N 51°54' E 003°27'0 0.0
2017-Nov-11 00:00N 51°54' E 003°27'0 0.0
2017-Nov-10 23:09N 51°54' E 003°27'0 0.0
2017-Nov-10 22:54N 51°54' E 003°27'0 0.1
2017-Nov-10 22:30N 51°54' E 003°27'0 0.1
2017-Nov-10 21:55N 51°54' E 003°27'0 0.1
2017-Nov-10 21:30N 51°54' E 003°27'0 0.0
2017-Nov-10 20:59N 51°54' E 003°27'0 0.1
2017-Nov-10 20:28N 51°54' E 003°27'0 0.0
2017-Nov-10 19:59N 51°54' E 003°27'0 0.0
2017-Nov-10 19:22N 51°54' E 003°27'0 0.0
2017-Nov-10 18:58N 51°54' E 003°27'0 0.0
2017-Nov-10 18:30N 51°54' E 003°27'0 0.0
2017-Nov-10 18:00N 51°54' E 003°27'0 0.0
2017-Nov-10 17:29N 51°54' E 003°27'0 0.1
2017-Nov-10 16:59N 51°54' E 003°27'0 0.0
2017-Nov-10 16:03N 51°54' E 003°27'0 0.1
2017-Nov-10 15:57N 51°54' E 003°27'0 0.0
2017-Nov-10 15:30N 51°54' E 003°27'0 0.0
2017-Nov-10 14:32N 51°54' E 003°27'0 0.2
2017-Nov-10 14:28N 51°54' E 003°27'0 0.0
2017-Nov-10 14:00N 51°54' E 003°27'0 0.0
2017-Nov-10 13:21N 51°54' E 003°27'0 0.0
2017-Nov-10 13:00N 51°54' E 003°27'0 0.0
2017-Nov-10 12:27N 51°54' E 003°27'0 0.0
2017-Nov-10 12:00N 51°54' E 003°27'0 0.1
2017-Nov-10 11:30N 51°54' E 003°27'0 0.1
2017-Nov-10 11:00N 51°54' E 003°27'0 0.1
2017-Nov-10 10:24N 51°54' E 003°27'0 0.0
2017-Nov-10 10:00N 51°54' E 003°27'0 0.0
2017-Nov-10 09:27N 51°54' E 003°27'0 0.1
2017-Nov-10 08:39N 51°54' E 003°27'0 0.0
2017-Nov-10 07:42N 51°54' E 003°27'0 0.0
2017-Nov-10 07:18N 51°54' E 003°27'0 0.1
2017-Nov-10 06:54N 51°54' E 003°27'0 0.0
2017-Nov-10 06:12N 51°54' E 003°27'0 0.0
2017-Nov-10 05:54N 51°54' E 003°27'0 0.0
2017-Nov-10 05:21N 51°54' E 003°27'0 0.0
2017-Nov-10 05:00N 51°54' E 003°27'0 0.0
2017-Nov-10 04:30N 51°54' E 003°27'0 0.0
2017-Nov-10 03:51N 51°54' E 003°27'0 0.0
2017-Nov-10 03:30N 51°54' E 003°27'0 0.1
2017-Nov-10 02:24N 51°54' E 003°27'0 0.1
2017-Nov-10 01:30N 51°54' E 003°27'0 0.0
2017-Nov-10 01:00N 51°54' E 003°27'0 0.0
2017-Nov-10 00:27N 51°54' E 003°27'0 0.0
2017-Nov-09 23:54N 51°54' E 003°27'0 0.0
2017-Nov-09 22:30N 51°54' E 003°27'  
Track history (hours):
 
Tides and Currents Weather Stations Pressure Air Temp Water Temp Dewpoint Dewpoint Depression Visibility Wind Speed Wind Dir Waves Ship Positions

Cezanne

Last reported at 2017-Nov-19 22:27 UTC. Time now 2017-Nov-24 05:46 UTC.
Position N 35°49' E 014°33'.

Length 300 m; draft 14.1 m.

Type: Cargo ship. MMSI: 353300000.

Date/timePositionNaut miles runAvg speedWind from/ knotsBaromVisibWave heightAir tempDewpointWater temp
2017-Nov-19 22:27N 35°49' E 014°33'0 0.1
2017-Nov-19 22:00N 35°49' E 014°33'1 2.3
2017-Nov-19 21:30N 35°49' E 014°34'2 3.9
2017-Nov-19 21:00N 35°47' E 014°35'4 8.5
2017-Nov-19 20:30N 35°44' E 014°31'511.2
2017-Nov-19 20:00N 35°44' E 014°24'714.3
2017-Nov-19 19:30N 35°48' E 014°17'816.7
2017-Nov-19 19:00N 35°52' E 014°08'917.2
2017-Nov-19 18:30N 35°56' E 013°59'817.2
2017-Nov-19 18:00N 36°01' E 013°50'917.3
2017-Nov-19 17:30N 36°05' E 013°40'817.3
2017-Nov-19 17:00N 36°10' E 013°32'63818.0
2017-Nov-18 05:31N 36°39' E 000°19'26918.8
2017-Nov-17 15:11N 36°01' W 005°12'318.4
2017-Nov-17 15:00N 36°01' W 005°16'816.5
2017-Nov-17 14:30N 36°06' W 005°24'3 1.6
2017-Nov-17 12:22N 36°09' W 005°26'0 0.0
2017-Nov-17 11:55N 36°09' W 005°26'0 0.0
2017-Nov-17 11:28N 36°09' W 005°26'0 0.0
2017-Nov-17 10:37N 36°09' W 005°26'0 0.1
2017-Nov-17 10:19N 36°09' W 005°26'0 0.0
2017-Nov-17 09:52N 36°09' W 005°26'0 0.0
2017-Nov-17 09:28N 36°09' W 005°26'0 0.0
2017-Nov-17 08:55N 36°09' W 005°26'0 0.0
2017-Nov-17 08:28N 36°09' W 005°26'0 0.0
2017-Nov-17 07:52N 36°09' W 005°26'0 0.0
2017-Nov-17 07:19N 36°09' W 005°26'0 0.0
2017-Nov-17 06:55N 36°09' W 005°26'0 0.0
2017-Nov-17 06:16N 36°09' W 005°26'0 0.0
2017-Nov-17 05:58N 36°09' W 005°26'0 0.0
2017-Nov-17 05:28N 36°09' W 005°26'0 0.1
2017-Nov-17 04:58N 36°09' W 005°26'0 0.1
2017-Nov-17 04:28N 36°09' W 005°26'0 0.0
2017-Nov-17 03:55N 36°09' W 005°26'0 0.0
2017-Nov-17 03:28N 36°09' W 005°26'0 0.0
2017-Nov-17 02:58N 36°09' W 005°26'0 0.0
2017-Nov-17 02:28N 36°09' W 005°26'0 0.0
2017-Nov-17 01:58N 36°09' W 005°26'0 0.0
2017-Nov-17 01:28N 36°09' W 005°26'0 0.0
2017-Nov-17 00:58N 36°09' W 005°26'0 0.0
2017-Nov-17 00:28N 36°09' W 005°26'0 0.0
2017-Nov-16 23:58N 36°09' W 005°26'0 0.0
2017-Nov-16 23:28N 36°09' W 005°26'0 0.0
2017-Nov-16 22:58N 36°09' W 005°26'0 0.0
2017-Nov-16 22:28N 36°09' W 005°26'0 0.0
2017-Nov-16 21:58N 36°09' W 005°26'0 0.0
2017-Nov-16 21:28N 36°09' W 005°26'0 0.0
2017-Nov-16 20:58N 36°09' W 005°26'0 0.0
2017-Nov-16 20:28N 36°09' W 005°26'0 0.0
2017-Nov-16 19:58N 36°09' W 005°26'0 0.0
2017-Nov-16 19:28N 36°09' W 005°26'0 0.0
2017-Nov-16 18:58N 36°09' W 005°26'0 0.0
2017-Nov-16 17:34N 36°09' W 005°26'0 0.0
2017-Nov-16 17:19N 36°09' W 005°26'0 0.0
2017-Nov-16 16:55N 36°09' W 005°26'0 0.0
2017-Nov-16 14:01N 36°09' W 005°26'0 0.0
2017-Nov-16 13:49N 36°09' W 005°26'0 0.0
2017-Nov-16 13:28N 36°09' W 005°26'0 0.0
2017-Nov-16 12:37N 36°09' W 005°26'0 0.1
2017-Nov-16 12:19N 36°09' W 005°26'0 0.0
2017-Nov-16 11:58N 36°09' W 005°26'0 0.0
2017-Nov-16 11:28N 36°09' W 005°26'0 0.8
2017-Nov-16 10:51N 36°09' W 005°26'2 5.2
2017-Nov-16 10:25N 36°08' W 005°24'4 9.1
2017-Nov-16 10:00N 36°04' W 005°22'2 4.3
2017-Nov-16 09:31N 36°03' W 005°21'3 5.4
2017-Nov-16 09:00N 36°03' W 005°17'0 0.3
2017-Nov-16 08:31N 36°03' W 005°17'0 0.5
2017-Nov-16 08:00N 36°03' W 005°18'0 0.6
2017-Nov-16 07:30N 36°03' W 005°18'1 2.3
2017-Nov-16 07:00N 36°03' W 005°16'4 7.2
2017-Nov-16 06:31N 36°03' W 005°12'4 7.2
2017-Nov-16 06:00N 36°06' W 005°08'0 0.8
2017-Nov-16 05:30N 36°06' W 005°08'0 0.6
2017-Nov-16 05:01N 36°06' W 005°07'2 0.8
2017-Nov-16 02:10N 36°07' W 005°05'0 2.0
2017-Nov-16 01:56N 36°07' W 005°06'2 4.9
2017-Nov-16 01:30N 36°06' W 005°08'815.4
2017-Nov-16 01:01N 36°01' W 005°15'714.1
2017-Nov-16 00:30N 35°58' W 005°23'22115.0
2017-Nov-15 09:46N 37°11' W 009°43'1119.4
2017-Nov-15 09:10N 37°22' W 009°46'319.7
2017-Nov-15 09:00N 37°26' W 009°46'1020.1
2017-Nov-15 08:30N 37°35' W 009°49'1020.6
2017-Nov-15 08:00N 37°46' W 009°52'1020.4
2017-Nov-15 07:30N 37°56' W 009°54'1020.3
2017-Nov-15 07:00N 38°05' W 009°57'1020.3
2017-Nov-15 06:30N 38°15' W 009°59'1020.3
2017-Nov-15 06:00N 38°25' W 010°02'1019.8
2017-Nov-15 05:30N 38°35' W 010°05'1019.8
2017-Nov-15 05:00N 38°45' W 010°08'1020.0
2017-Nov-15 04:30N 38°55' W 010°07'1020.3
2017-Nov-15 04:01N 39°05' W 010°08'1020.4
2017-Nov-15 03:30N 39°15' W 010°09'1020.0
2017-Nov-15 03:00N 39°25' W 010°09'1019.8
2017-Nov-15 02:30N 39°35' W 010°10'50019.6
2017-Nov-14 01:01N 47°33' W 006°46'024.5
2017-Nov-14 01:00N 47°33' W 006°46'1219.6
2017-Nov-14 00:23N 47°44' W 006°38'719.6
2017-Nov-14 00:00N 47°50' W 006°33'2419.1
2017-Nov-13 22:45N 48°12' W 006°16'719.0
2017-Nov-13 22:23N 48°18' W 006°11'819.2
2017-Nov-13 21:58N 48°25' W 006°06'41319.4
2017-Nov-13 00:39N 52°03' E 003°04'415.6
2017-Nov-13 00:23N 52°03' E 003°10'715.5
2017-Nov-12 23:56N 52°03' E 003°22'715.3
2017-Nov-12 23:30N 52°04' E 003°33'815.2
2017-Nov-12 23:00N 52°04' E 003°45'510.2
2017-Nov-12 22:30N 52°04' E 003°53'1 2.3
2017-Nov-12 22:00N 52°03' E 003°54'1 2.2
2017-Nov-12 21:30N 52°02' E 003°55'1 2.8
2017-Nov-12 21:00N 52°01' E 003°57'3 6.9
2017-Nov-12 20:30N 51°60' E 004°02'3 5.2
2017-Nov-12 20:00N 51°58' E 004°05'1 2.2
2017-Nov-12 19:29N 51°57' E 004°03'0 0.0
2017-Nov-12 18:59N 51°57' E 004°03'0 0.0
2017-Nov-12 18:29N 51°57' E 004°03'0 0.0
2017-Nov-12 17:59N 51°57' E 004°03'0 0.0
2017-Nov-12 17:29N 51°57' E 004°03'0 0.0
2017-Nov-12 16:59N 51°57' E 004°03'0 0.0
2017-Nov-12 16:29N 51°57' E 004°03'0 0.0
2017-Nov-12 15:59N 51°57' E 004°03'0 0.0
2017-Nov-12 15:29N 51°57' E 004°03'0 0.0
2017-Nov-12 14:59N 51°57' E 004°03'0 0.0
2017-Nov-12 14:26N 51°57' E 004°03'0 0.0
2017-Nov-12 13:59N 51°58' E 004°03'0 0.0
2017-Nov-12 13:29N 51°57' E 004°03'0 0.0
2017-Nov-12 12:59N 51°57' E 004°03'0 0.0
2017-Nov-12 12:29N 51°57' E 004°03'0 0.0
2017-Nov-12 11:59N 51°57' E 004°03'0 0.0
2017-Nov-12 11:29N 51°57' E 004°03'0 0.0
2017-Nov-12 10:59N 51°57' E 004°03'0 0.0
2017-Nov-12 10:29N 51°57' E 004°03'0 0.0
2017-Nov-12 09:59N 51°57' E 004°03'0 0.0
2017-Nov-12 09:29N 51°57' E 004°03'0 0.0
2017-Nov-12 08:59N 51°57' E 004°03'0 0.0
2017-Nov-12 08:29N 51°57' E 004°03'0 0.0
2017-Nov-12 07:59N 51°57' E 004°03'0 0.0
2017-Nov-12 07:26N 51°57' E 004°03'0 0.0
2017-Nov-12 06:59N 51°57' E 004°03'0 0.0
2017-Nov-12 06:29N 51°57' E 004°03'0 0.0
2017-Nov-12 05:59N 51°57' E 004°03'0 0.0
2017-Nov-12 05:29N 51°57' E 004°03'0 0.0
2017-Nov-12 04:59N 51°57' E 004°03'0 0.0
2017-Nov-12 04:29N 51°58' E 004°03'0 0.0
2017-Nov-12 03:59N 51°57' E 004°03'0 0.0
2017-Nov-12 03:29N 51°57' E 004°03'0 0.0
2017-Nov-12 02:59N 51°57' E 004°03'0 0.0
2017-Nov-12 02:29N 51°57' E 004°03'0 0.0
2017-Nov-12 01:59N 51°57' E 004°03'0 0.0
2017-Nov-12 01:29N 51°58' E 004°03'0 0.0
2017-Nov-12 00:59N 51°57' E 004°03'0 0.0
2017-Nov-12 00:29N 51°57' E 004°03'0 0.0
2017-Nov-11 23:59N 51°57' E 004°03'0 0.0
2017-Nov-11 23:29N 51°57' E 004°03'0 0.0
2017-Nov-11 22:59N 51°57' E 004°03'0 0.0
2017-Nov-11 22:29N 51°57' E 004°03'0 0.0
2017-Nov-11 21:59N 51°57' E 004°03'0 0.0
2017-Nov-11 21:29N 51°57' E 004°03'0 0.0
2017-Nov-11 20:59N 51°57' E 004°03'0 0.0
2017-Nov-11 20:29N 51°58' E 004°03'0 0.0
2017-Nov-11 19:59N 51°57' E 004°03'0 0.0
2017-Nov-11 19:29N 51°57' E 004°03'0 0.0
2017-Nov-11 18:59N 51°57' E 004°03'0 0.0
2017-Nov-11 18:26N 51°57' E 004°03'0 0.0
2017-Nov-11 17:59N 51°57' E 004°03'0 0.0
2017-Nov-11 17:29N 51°57' E 004°03'0 0.0
2017-Nov-11 16:59N 51°57' E 004°03'0 0.0
2017-Nov-11 16:29N 51°57' E 004°03'0 0.0
2017-Nov-11 15:59N 51°57' E 004°03'0 0.0
2017-Nov-11 15:29N 51°57' E 004°03'0 0.0
2017-Nov-11 14:59N 51°57' E 004°03'0 0.0
2017-Nov-11 14:29N 51°57' E 004°03'0 0.0
2017-Nov-11 13:59N 51°57' E 004°03'0 0.0
2017-Nov-11 13:29N 51°57' E 004°03'0 0.0
2017-Nov-11 12:59N 51°57' E 004°03'0 0.0
2017-Nov-11 12:29N 51°57' E 004°03'0 0.0
2017-Nov-11 11:59N 51°57' E 004°03'0 0.0
2017-Nov-11 11:29N 51°57' E 004°03'0 0.0
2017-Nov-11 10:59N 51°57' E 004°03'0 0.0
2017-Nov-11 10:29N 51°57' E 004°03'0 0.0
2017-Nov-11 09:59N 51°57' E 004°03'0 0.0
2017-Nov-11 09:29N 51°57' E 004°03'0 0.0
2017-Nov-11 08:59N 51°57' E 004°03'0 0.0
2017-Nov-11 08:29N 51°57' E 004°03'0 0.0
2017-Nov-11 07:59N 51°57' E 004°03'0 0.0
2017-Nov-11 07:29N 51°57' E 004°03'0 0.0
2017-Nov-11 06:59N 51°57' E 004°03'0 0.0
2017-Nov-11 06:30N 51°57' E 004°03'0 0.0
2017-Nov-11 06:00N 51°58' E 004°03'1 1.8
2017-Nov-11 05:30N 51°58' E 004°04'2 3.6
2017-Nov-11 05:00N 51°59' E 004°03'612.5
2017-Nov-11 04:30N 52°01' E 003°53'3 6.3
2017-Nov-11 04:00N 51°60' E 003°49'816.1
2017-Nov-11 03:30N 51°57' E 003°37'712.8
2017-Nov-11 03:00N 51°54' E 003°27'0 0.7
2017-Nov-11 02:29N 51°54' E 003°27'0 0.2
2017-Nov-11 02:00N 51°54' E 003°27'0 0.0
2017-Nov-11 01:30N 51°54' E 003°27'0 0.0
2017-Nov-11 00:57N 51°54' E 003°27'0 0.0
2017-Nov-11 00:30N 51°54' E 003°27'0 0.0
2017-Nov-11 00:00N 51°54' E 003°27'0 0.0
2017-Nov-10 23:09N 51°54' E 003°27'0 0.0
2017-Nov-10 22:54N 51°54' E 003°27'0 0.1
2017-Nov-10 22:30N 51°54' E 003°27'0 0.1
2017-Nov-10 21:55N 51°54' E 003°27'0 0.1
2017-Nov-10 21:30N 51°54' E 003°27'0 0.0
2017-Nov-10 20:59N 51°54' E 003°27'0 0.1
2017-Nov-10 20:28N 51°54' E 003°27'0 0.0
2017-Nov-10 19:59N 51°54' E 003°27'0 0.0
2017-Nov-10 19:22N 51°54' E 003°27'0 0.0
2017-Nov-10 18:58N 51°54' E 003°27'0 0.0
2017-Nov-10 18:30N 51°54' E 003°27'0 0.0
2017-Nov-10 18:00N 51°54' E 003°27'0 0.0
2017-Nov-10 17:29N 51°54' E 003°27'0 0.1
2017-Nov-10 16:59N 51°54' E 003°27'0 0.0
2017-Nov-10 16:03N 51°54' E 003°27'0 0.1
2017-Nov-10 15:57N 51°54' E 003°27'0 0.0
2017-Nov-10 15:30N 51°54' E 003°27'0 0.0
2017-Nov-10 14:32N 51°54' E 003°27'0 0.2
2017-Nov-10 14:28N 51°54' E 003°27'0 0.0
2017-Nov-10 14:00N 51°54' E 003°27'0 0.0
2017-Nov-10 13:21N 51°54' E 003°27'0 0.0
2017-Nov-10 13:00N 51°54' E 003°27'0 0.0
2017-Nov-10 12:27N 51°54' E 003°27'0 0.0
2017-Nov-10 12:00N 51°54' E 003°27'0 0.1
2017-Nov-10 11:30N 51°54' E 003°27'0 0.1
2017-Nov-10 11:00N 51°54' E 003°27'0 0.1
2017-Nov-10 10:24N 51°54' E 003°27'0 0.0
2017-Nov-10 10:00N 51°54' E 003°27'0 0.0
2017-Nov-10 09:27N 51°54' E 003°27'0 0.1
2017-Nov-10 08:39N 51°54' E 003°27'0 0.0
2017-Nov-10 07:42N 51°54' E 003°27'0 0.0
2017-Nov-10 07:18N 51°54' E 003°27'0 0.1
2017-Nov-10 06:54N 51°54' E 003°27'0 0.0
2017-Nov-10 06:12N 51°54' E 003°27'0 0.0
2017-Nov-10 05:54N 51°54' E 003°27'0 0.0
2017-Nov-10 05:21N 51°54' E 003°27'0 0.0
2017-Nov-10 05:00N 51°54' E 003°27'0 0.0
2017-Nov-10 04:30N 51°54' E 003°27'0 0.0
2017-Nov-10 03:51N 51°54' E 003°27'0 0.0
2017-Nov-10 03:30N 51°54' E 003°27'0 0.1
2017-Nov-10 02:24N 51°54' E 003°27'0 0.1
2017-Nov-10 01:30N 51°54' E 003°27'0 0.0
2017-Nov-10 01:00N 51°54' E 003°27'0 0.0
2017-Nov-10 00:27N 51°54' E 003°27'0 0.0
2017-Nov-09 23:54N 51°54' E 003°27'0 0.0
2017-Nov-09 22:30N 51°54' E 003°27'  

Dump ship's entire track history